createdAt,value
2023-05-07T00:02:10.578Z,15.26
2023-05-07T00:04:37.289Z,15.26
2023-05-07T00:07:04.433Z,15.16
2023-05-07T00:09:34.488Z,15.23
2023-05-07T00:12:04.146Z,15.21
2023-05-07T00:14:30.777Z,15.20
2023-05-07T00:16:57.546Z,15.17
2023-05-07T00:19:24.385Z,15.18
2023-05-07T00:21:54.096Z,15.12
2023-05-07T00:24:21.003Z,15.16
2023-05-07T00:26:52.617Z,15.12
2023-05-07T00:29:19.807Z,15.09
2023-05-07T00:31:47.707Z,15.12
2023-05-07T00:34:14.416Z,15.14
2023-05-07T00:36:41.070Z,15.14
2023-05-07T00:39:12.546Z,15.17
2023-05-07T00:41:39.178Z,15.20
2023-05-07T00:44:05.870Z,15.22
2023-05-07T00:46:33.995Z,15.27
2023-05-07T00:49:01.559Z,15.26
2023-05-07T00:51:29.208Z,15.28
2023-05-07T00:53:56.261Z,15.33
2023-05-07T00:56:22.989Z,15.32
2023-05-07T00:58:50.453Z,15.32
2023-05-07T01:01:17.201Z,15.30
2023-05-07T01:03:44.262Z,15.27
2023-05-07T01:06:12.763Z,15.28
2023-05-07T01:08:42.147Z,15.28
2023-05-07T01:11:10.060Z,15.29
2023-05-07T01:13:40.016Z,15.28
2023-05-07T01:16:07.672Z,15.24
2023-05-07T01:18:36.198Z,15.21
2023-05-07T01:21:05.788Z,15.23
2023-05-07T01:23:34.740Z,15.22
2023-05-07T01:26:01.488Z,15.23
2023-05-07T01:28:28.344Z,15.25
2023-05-07T01:31:01.212Z,15.21
2023-05-07T01:33:32.783Z,15.10
2023-05-07T01:36:00.490Z,15.14
2023-05-07T01:38:28.619Z,15.19
2023-05-07T01:40:56.596Z,15.20
2023-05-07T01:43:23.322Z,15.26
2023-05-07T01:45:50.855Z,15.25
2023-05-07T01:48:18.915Z,15.24
2023-05-07T01:50:48.250Z,15.25
2023-05-07T01:53:24.087Z,15.28
2023-05-07T01:55:51.018Z,15.31
2023-05-07T01:58:17.674Z,15.35
2023-05-07T02:00:44.376Z,15.36
2023-05-07T02:03:11.176Z,15.40
2023-05-07T02:05:38.261Z,15.39
2023-05-07T02:08:08.060Z,15.40
2023-05-07T02:10:34.874Z,15.39
2023-05-07T02:13:01.541Z,15.42
2023-05-07T02:15:28.441Z,15.39
2023-05-07T02:18:01.142Z,15.37
2023-05-07T02:20:27.959Z,15.38
2023-05-07T02:22:54.608Z,15.35
2023-05-07T02:25:21.265Z,15.36
2023-05-07T02:27:47.884Z,15.37
2023-05-07T02:30:17.882Z,15.34
2023-05-07T02:32:44.665Z,15.30
2023-05-07T02:35:13.822Z,15.32
2023-05-07T02:37:40.514Z,15.30
2023-05-07T02:40:07.940Z,15.27
2023-05-07T02:42:34.818Z,15.25
2023-05-07T02:45:04.321Z,15.23
2023-05-07T02:47:30.941Z,15.25
2023-05-07T02:49:57.764Z,15.28
2023-05-07T02:52:24.447Z,15.25
2023-05-07T02:54:51.074Z,15.25
2023-05-07T02:57:17.726Z,15.27
2023-05-07T02:59:44.577Z,15.28
2023-05-07T03:02:11.378Z,15.28
2023-05-07T03:04:38.685Z,15.24
2023-05-07T03:07:05.351Z,15.26
2023-05-07T03:09:32.107Z,15.25
2023-05-07T03:11:58.805Z,15.24
2023-05-07T03:14:28.527Z,15.24
2023-05-07T03:16:55.263Z,15.25
2023-05-07T03:19:21.934Z,15.23
2023-05-07T03:21:48.599Z,15.22
2023-05-07T03:24:15.244Z,15.20
2023-05-07T03:26:41.919Z,15.19
2023-05-07T03:29:10.421Z,15.18
2023-05-07T03:31:37.211Z,15.16
2023-05-07T03:34:05.557Z,15.14
2023-05-07T03:36:38.101Z,15.14
2023-05-07T03:39:04.763Z,15.12
2023-05-07T03:41:34.250Z,15.07
2023-05-07T03:44:01.032Z,15.13
2023-05-07T03:46:27.949Z,15.12
2023-05-07T03:48:54.747Z,15.14
2023-05-07T03:51:21.489Z,15.16
2023-05-07T03:53:48.084Z,15.14
2023-05-07T03:56:14.812Z,15.17
2023-05-07T03:58:43.507Z,15.17
2023-05-07T04:01:10.207Z,15.18
2023-05-07T04:03:36.906Z,15.20
2023-05-07T04:06:06.863Z,15.21
2023-05-07T04:08:33.496Z,15.20
2023-05-07T04:11:01.193Z,15.21
2023-05-07T04:13:28.388Z,15.24
2023-05-07T04:15:56.617Z,15.26
2023-05-07T04:18:23.332Z,15.27
2023-05-07T04:20:50.204Z,15.27
2023-05-07T04:23:17.410Z,15.29
2023-05-07T04:25:44.336Z,15.32
2023-05-07T04:28:10.952Z,15.33
2023-05-07T04:30:37.622Z,15.34
2023-05-07T04:33:04.536Z,15.33
2023-05-07T04:35:31.553Z,15.33
2023-05-07T04:37:58.160Z,15.33
2023-05-07T04:40:25.004Z,15.33
2023-05-07T04:42:51.724Z,15.37
2023-05-07T04:45:18.514Z,15.38
2023-05-07T04:47:45.264Z,15.36
2023-05-07T04:50:12.173Z,15.39
2023-05-07T04:52:38.986Z,15.43
2023-05-07T04:55:06.163Z,15.47
2023-05-07T04:57:32.773Z,15.47
2023-05-07T04:59:59.529Z,15.49
2023-05-07T05:02:28.945Z,15.58
2023-05-07T05:04:55.600Z,15.62
2023-05-07T05:07:25.268Z,15.66
2023-05-07T05:09:52.051Z,15.78
2023-05-07T05:12:18.855Z,15.86
2023-05-07T05:14:45.497Z,15.97
2023-05-07T05:17:12.155Z,16.05
2023-05-07T05:19:39.909Z,16.08
2023-05-07T05:22:10.784Z,16.13
2023-05-07T05:24:37.509Z,16.18
2023-05-07T05:27:04.365Z,16.24
2023-05-07T05:29:31.083Z,16.23
2023-05-07T05:31:59.450Z,16.31
2023-05-07T05:34:26.200Z,16.36
2023-05-07T05:36:53.168Z,16.48
2023-05-07T05:39:19.832Z,16.43
2023-05-07T05:41:46.670Z,16.30
2023-05-07T05:44:19.613Z,16.24
2023-05-07T05:46:46.451Z,16.19
2023-05-07T05:49:13.130Z,16.09
2023-05-07T05:51:39.928Z,16.10
2023-05-07T05:54:06.519Z,16.08
2023-05-07T05:56:36.177Z,16.06
2023-05-07T05:59:02.994Z,16.03
2023-05-07T06:01:29.912Z,16.05
2023-05-07T06:03:57.506Z,15.98
2023-05-07T06:06:24.252Z,15.97
2023-05-07T06:08:50.903Z,15.92
2023-05-07T06:11:17.685Z,15.90
2023-05-07T06:13:46.634Z,15.86
2023-05-07T06:16:13.413Z,15.80
2023-05-07T06:18:40.302Z,15.84
2023-05-07T06:21:06.908Z,15.79
2023-05-07T06:23:43.636Z,15.67
2023-05-07T06:26:10.297Z,15.69
2023-05-07T06:28:37.031Z,15.68
2023-05-07T06:31:17.861Z,15.67
2023-05-07T06:33:48.090Z,15.53
2023-05-07T06:36:14.870Z,15.51
2023-05-07T06:38:41.577Z,15.44
2023-05-07T06:41:08.633Z,15.35
2023-05-07T06:43:38.158Z,15.28
2023-05-07T06:46:05.035Z,15.33
2023-05-07T06:48:31.815Z,15.34
2023-05-07T06:50:58.564Z,15.34
2023-05-07T06:53:25.450Z,15.36
2023-05-07T06:55:52.108Z,15.34
2023-05-07T06:58:18.915Z,15.28
2023-05-07T07:00:45.650Z,15.37
2023-05-07T07:03:12.620Z,15.35
2023-05-07T07:05:39.409Z,15.32
2023-05-07T07:08:06.262Z,15.39
2023-05-07T07:10:32.917Z,15.41
2023-05-07T07:12:59.678Z,15.43
2023-05-07T07:15:28.003Z,15.45
2023-05-07T07:17:55.936Z,15.49
2023-05-07T07:20:25.584Z,15.58
2023-05-07T07:22:52.271Z,15.62
2023-05-07T07:25:21.013Z,15.69
2023-05-07T07:27:47.890Z,15.74
2023-05-07T07:30:14.700Z,15.89
2023-05-07T07:32:41.509Z,15.98
2023-05-07T07:35:08.852Z,16.12
2023-05-07T07:37:38.570Z,16.28
2023-05-07T07:40:08.985Z,16.43
2023-05-07T07:42:37.047Z,16.69
2023-05-07T07:45:04.186Z,16.76
2023-05-07T07:47:30.813Z,16.79
2023-05-07T07:49:57.620Z,16.81
2023-05-07T07:52:24.271Z,16.85
2023-05-07T07:54:50.897Z,17.04
2023-05-07T07:57:17.546Z,17.23
2023-05-07T07:59:44.208Z,17.63
2023-05-07T08:02:10.893Z,17.71
2023-05-07T08:04:37.786Z,17.70
2023-05-07T08:07:09.803Z,17.87
2023-05-07T08:09:36.667Z,18.06
2023-05-07T08:12:03.636Z,18.40
2023-05-07T08:14:30.233Z,18.68
2023-05-07T08:16:57.069Z,18.82
2023-05-07T08:19:24.166Z,19.02
2023-05-07T08:21:50.811Z,19.17
2023-05-07T08:24:18.022Z,19.37
2023-05-07T08:26:48.784Z,19.41
2023-05-07T08:29:15.588Z,19.46
2023-05-07T08:31:42.261Z,19.23
2023-05-07T08:34:09.925Z,19.26
2023-05-07T08:36:37.130Z,19.33
2023-05-07T08:39:03.800Z,19.22
2023-05-07T08:41:30.806Z,19.19
2023-05-07T08:43:59.908Z,19.09
2023-05-07T08:46:29.877Z,18.96
2023-05-07T08:48:56.680Z,18.96
2023-05-07T08:51:23.744Z,18.90
2023-05-07T08:53:51.277Z,18.73
2023-05-07T08:56:19.452Z,18.83
2023-05-07T08:58:47.087Z,19.03
2023-05-07T09:01:18.199Z,19.20
2023-05-07T09:03:48.347Z,19.49
2023-05-07T09:06:16.224Z,19.76
2023-05-07T09:08:50.649Z,19.85
2023-05-07T09:11:17.403Z,19.76
2023-05-07T09:13:44.115Z,19.84
2023-05-07T09:16:12.461Z,19.93
2023-05-07T09:18:45.891Z,20.02
2023-05-07T09:21:16.971Z,19.82
2023-05-07T09:23:43.952Z,19.71
2023-05-07T09:26:14.100Z,19.77
2023-05-07T09:28:41.835Z,19.83
2023-05-07T09:31:09.603Z,20.21
2023-05-07T09:33:36.344Z,20.33
2023-05-07T09:36:07.775Z,20.45
2023-05-07T09:38:40.706Z,20.60
2023-05-07T09:41:08.579Z,20.78
2023-05-07T09:43:36.769Z,21.11
2023-05-07T09:46:28.657Z,21.26
2023-05-07T09:48:58.769Z,21.30
2023-05-07T09:51:25.356Z,21.32
2023-05-07T09:53:56.767Z,21.35
2023-05-07T09:56:23.992Z,21.42
2023-05-07T09:58:53.734Z,21.30
2023-05-07T10:01:28.115Z,21.47
2023-05-07T10:03:56.190Z,21.64
2023-05-07T10:06:23.900Z,21.72
2023-05-07T10:08:52.201Z,21.85
2023-05-07T10:11:19.436Z,21.77
2023-05-07T10:13:47.544Z,21.62
2023-05-07T10:16:15.395Z,21.77
2023-05-07T10:18:44.288Z,21.74
2023-05-07T10:21:24.091Z,21.76
2023-05-07T10:23:54.609Z,21.70
2023-05-07T10:26:26.455Z,21.86
2023-05-07T10:29:00.693Z,21.96
2023-05-07T10:31:33.545Z,21.99
2023-05-07T10:34:02.123Z,22.13
2023-05-07T10:36:29.195Z,22.10
2023-05-07T10:38:56.370Z,22.37
2023-05-07T10:41:23.084Z,22.51
2023-05-07T10:43:55.659Z,22.78
2023-05-07T10:46:23.700Z,22.73
2023-05-07T10:49:02.728Z,23.08
2023-05-07T10:51:30.336Z,23.01
2023-05-07T10:54:11.981Z,23.22
2023-05-07T10:56:42.440Z,23.10
2023-05-07T10:59:21.254Z,22.59
2023-05-07T11:02:06.775Z,22.34
2023-05-07T11:04:35.420Z,22.45
2023-05-07T11:07:08.157Z,22.48
2023-05-07T11:10:07.447Z,22.45
2023-05-07T11:12:36.890Z,22.48
2023-05-07T11:15:11.002Z,22.47
2023-05-07T11:17:56.268Z,22.36
2023-05-07T11:20:48.752Z,22.19
2023-05-07T11:23:36.565Z,22.26
2023-05-07T11:26:09.503Z,22.28
2023-05-07T11:28:43.740Z,22.31
2023-05-07T11:31:11.824Z,22.32
2023-05-07T11:33:39.728Z,22.31
2023-05-07T11:36:12.056Z,22.27
2023-05-07T11:38:39.428Z,22.06
2023-05-07T11:41:06.371Z,21.90
2023-05-07T11:43:34.024Z,21.87
2023-05-07T11:46:09.312Z,21.82
2023-05-07T11:48:36.385Z,21.82
2023-05-07T11:51:05.525Z,21.67
2023-05-07T11:53:42.934Z,21.61
2023-05-07T11:56:11.275Z,21.49
2023-05-07T11:58:38.629Z,21.49
2023-05-07T12:01:08.315Z,21.43
2023-05-07T12:03:36.433Z,21.44
2023-05-07T12:06:03.707Z,21.38
2023-05-07T12:08:30.875Z,21.47
2023-05-07T12:10:57.981Z,21.60
2023-05-07T12:13:27.796Z,21.60
2023-05-07T12:15:56.452Z,21.67
2023-05-07T12:18:24.089Z,21.63
2023-05-07T12:20:53.729Z,21.63
2023-05-07T12:23:21.458Z,21.66
2023-05-07T12:25:49.225Z,21.74
2023-05-07T12:28:17.493Z,21.76
2023-05-07T12:30:49.410Z,21.83
2023-05-07T12:33:20.627Z,21.88
2023-05-07T12:35:48.926Z,21.83
2023-05-07T12:38:18.220Z,21.83
2023-05-07T12:40:52.290Z,21.87
2023-05-07T12:43:32.206Z,21.90
2023-05-07T12:46:02.195Z,21.86
2023-05-07T12:48:29.245Z,21.75
2023-05-07T12:51:00.664Z,21.63
2023-05-07T12:53:29.474Z,21.76
2023-05-07T12:55:58.227Z,21.85
2023-05-07T12:58:34.119Z,22.05
2023-05-07T13:01:06.804Z,22.10
2023-05-07T13:03:40.026Z,22.22
2023-05-07T13:06:11.452Z,22.42
2023-05-07T13:08:48.372Z,22.47
2023-05-07T13:11:15.051Z,22.49
2023-05-07T13:13:42.849Z,22.09
2023-05-07T13:16:11.670Z,22.06
2023-05-07T13:18:40.667Z,22.19
2023-05-07T13:21:07.648Z,22.24
2023-05-07T13:23:35.079Z,22.32
2023-05-07T13:26:06.259Z,22.32
2023-05-07T13:28:38.260Z,22.31
2023-05-07T13:31:05.034Z,22.19
2023-05-07T13:33:31.743Z,22.14
2023-05-07T13:35:58.806Z,22.14
2023-05-07T13:38:25.677Z,22.11
2023-05-07T13:40:55.472Z,22.21
2023-05-07T13:43:24.859Z,21.99
2023-05-07T13:45:54.699Z,21.91
2023-05-07T13:48:21.449Z,21.92
2023-05-07T13:50:48.038Z,21.98
2023-05-07T13:53:15.133Z,21.91
2023-05-07T13:55:41.748Z,21.83
2023-05-07T13:58:08.386Z,21.81
2023-05-07T14:00:39.086Z,21.94
2023-05-07T14:03:06.392Z,22.07
2023-05-07T14:05:33.092Z,22.18
2023-05-07T14:07:59.782Z,22.29
2023-05-07T14:10:27.601Z,22.32
2023-05-07T14:12:54.389Z,22.44
2023-05-07T14:15:21.057Z,22.29
2023-05-07T14:17:47.861Z,22.22
2023-05-07T14:20:14.905Z,22.04
2023-05-07T14:22:41.888Z,21.86
2023-05-07T14:25:09.004Z,21.64
2023-05-07T14:27:35.788Z,21.51
2023-05-07T14:30:02.911Z,21.42
2023-05-07T14:32:29.624Z,21.38
2023-05-07T14:34:56.311Z,21.33
2023-05-07T14:37:22.967Z,21.27
2023-05-07T14:39:50.697Z,21.19
2023-05-07T14:42:22.655Z,21.09
2023-05-07T14:44:49.584Z,21.01
2023-05-07T14:47:17.294Z,20.99
2023-05-07T14:49:45.178Z,20.96
2023-05-07T14:52:15.352Z,20.84
2023-05-07T14:54:46.243Z,20.71
2023-05-07T14:57:16.128Z,20.53
2023-05-07T14:59:43.329Z,20.04
2023-05-07T15:02:12.470Z,19.77
2023-05-07T15:04:39.769Z,19.83
2023-05-07T15:07:06.489Z,19.67
2023-05-07T15:09:33.101Z,19.43
2023-05-07T15:11:59.717Z,19.43
2023-05-07T15:14:26.409Z,19.36
2023-05-07T15:16:55.224Z,19.22
2023-05-07T15:19:22.072Z,19.18
2023-05-07T15:21:48.738Z,19.14
2023-05-07T15:24:15.681Z,19.06
2023-05-07T15:26:42.287Z,19.02
2023-05-07T15:29:09.313Z,18.83
2023-05-07T15:31:36.072Z,18.51
2023-05-07T15:34:02.893Z,18.31
2023-05-07T15:36:29.798Z,18.09
2023-05-07T15:38:59.693Z,18.04
2023-05-07T15:41:26.383Z,17.90
2023-05-07T15:43:55.868Z,17.85
2023-05-07T15:46:27.099Z,17.79
2023-05-07T15:48:54.647Z,17.44
2023-05-07T15:51:27.810Z,17.30
2023-05-07T15:53:54.503Z,17.37
2023-05-07T15:56:21.230Z,17.48
2023-05-07T15:58:50.267Z,17.27
2023-05-07T16:01:17.119Z,17.13
2023-05-07T16:03:44.034Z,17.03
2023-05-07T16:06:11.230Z,17.03
2023-05-07T16:08:38.040Z,17.01
2023-05-07T16:11:04.730Z,16.76
2023-05-07T16:13:31.310Z,16.69
2023-05-07T16:15:59.451Z,16.59
2023-05-07T16:18:26.176Z,16.52
2023-05-07T16:20:55.549Z,16.47
2023-05-07T16:23:24.834Z,16.52
2023-05-07T16:25:51.590Z,16.64
2023-05-07T16:28:18.206Z,16.64
2023-05-07T16:30:44.860Z,16.60
2023-05-07T16:33:12.894Z,16.55
2023-05-07T16:35:51.305Z,16.49
2023-05-07T16:38:17.984Z,16.42
2023-05-07T16:40:44.685Z,16.28
2023-05-07T16:43:11.449Z,16.11
2023-05-07T16:45:38.089Z,15.88
2023-05-07T16:48:05.539Z,15.74
2023-05-07T16:50:32.290Z,15.70
2023-05-07T16:52:58.908Z,15.77
2023-05-07T16:55:25.540Z,15.66
2023-05-07T16:57:52.394Z,15.55
2023-05-07T17:00:19.273Z,15.42
2023-05-07T17:02:46.067Z,15.20
2023-05-07T17:05:12.988Z,15.02
2023-05-07T17:07:40.105Z,14.90
2023-05-07T17:10:07.339Z,14.63
2023-05-07T17:12:33.982Z,14.59
2023-05-07T17:15:00.821Z,14.57
2023-05-07T17:17:27.442Z,14.49
2023-05-07T17:19:54.151Z,14.32
2023-05-07T17:22:20.917Z,14.31
2023-05-07T17:24:47.796Z,14.35
2023-05-07T17:27:14.615Z,14.32
2023-05-07T17:29:44.111Z,14.27
2023-05-07T17:32:13.773Z,14.21
2023-05-07T17:34:40.728Z,14.09
2023-05-07T17:37:07.419Z,14.04
2023-05-07T17:39:34.507Z,14.10
2023-05-07T17:42:01.127Z,14.01
2023-05-07T17:44:30.278Z,13.75
2023-05-07T17:46:59.295Z,13.79
2023-05-07T17:49:25.943Z,13.68
2023-05-07T17:51:55.188Z,13.56
2023-05-07T17:54:28.520Z,13.32
2023-05-07T17:56:57.204Z,13.34
2023-05-07T17:59:23.884Z,13.39
2023-05-07T18:01:50.596Z,13.17
2023-05-07T18:04:18.443Z,13.27
2023-05-07T18:06:45.062Z,13.22
2023-05-07T18:09:16.201Z,13.08
2023-05-07T18:11:42.814Z,13.10
2023-05-07T18:14:09.551Z,13.15
2023-05-07T18:16:39.393Z,12.99
2023-05-07T18:19:06.168Z,13.02
2023-05-07T18:21:40.159Z,13.01
2023-05-07T18:24:08.726Z,13.02
2023-05-07T18:26:35.485Z,12.96
2023-05-07T18:29:02.122Z,12.95
2023-05-07T18:31:29.115Z,12.80
2023-05-07T18:33:55.999Z,12.62
2023-05-07T18:36:25.630Z,12.59
2023-05-07T18:38:55.493Z,12.52
2023-05-07T18:41:24.953Z,12.40
2023-05-07T18:43:51.764Z,12.35
2023-05-07T18:46:18.433Z,12.35
2023-05-07T18:48:45.394Z,12.22
2023-05-07T18:51:12.069Z,12.19
2023-05-07T18:53:39.811Z,12.11
2023-05-07T18:56:07.459Z,11.98
2023-05-07T18:58:34.319Z,11.95
2023-05-07T19:01:01.954Z,11.96
2023-05-07T19:03:31.864Z,11.90
2023-05-07T19:05:58.710Z,11.81
2023-05-07T19:08:25.560Z,11.83
2023-05-07T19:10:52.577Z,11.79
2023-05-07T19:13:19.323Z,11.82
2023-05-07T19:15:46.104Z,11.73
2023-05-07T19:18:15.724Z,11.72
2023-05-07T19:20:45.659Z,11.69
2023-05-07T19:23:16.378Z,11.62
2023-05-07T19:25:43.358Z,11.66
2023-05-07T19:28:10.085Z,11.65
2023-05-07T19:30:42.296Z,11.71
2023-05-07T19:33:09.086Z,11.67
2023-05-07T19:35:35.817Z,11.62
2023-05-07T19:38:03.458Z,11.54
2023-05-07T19:40:30.155Z,11.43
2023-05-07T19:43:04.347Z,11.45
2023-05-07T19:45:31.120Z,11.33
2023-05-07T19:47:59.633Z,11.34
2023-05-07T19:50:26.469Z,11.37
2023-05-07T19:52:53.178Z,11.25
2023-05-07T19:55:20.235Z,11.33
2023-05-07T19:57:46.913Z,11.34
2023-05-07T20:00:14.363Z,11.06
2023-05-07T20:02:41.609Z,11.01
2023-05-07T20:05:08.949Z,10.92
2023-05-07T20:07:35.691Z,10.91
2023-05-07T20:10:05.756Z,10.83
2023-05-07T20:12:35.776Z,10.83
2023-05-07T20:15:02.763Z,10.73
2023-05-07T20:17:29.440Z,10.69
2023-05-07T20:19:56.256Z,10.75
2023-05-07T20:22:23.533Z,10.61
2023-05-07T20:24:52.057Z,10.56
2023-05-07T20:27:18.731Z,10.56
2023-05-07T20:29:46.994Z,10.54
2023-05-07T20:32:13.743Z,10.62
2023-05-07T20:34:40.400Z,10.52
2023-05-07T20:37:09.500Z,10.64
2023-05-07T20:39:38.155Z,10.49
2023-05-07T20:42:05.254Z,10.35
2023-05-07T20:44:33.592Z,10.33
2023-05-07T20:47:00.543Z,10.31
2023-05-07T20:49:29.580Z,10.32
2023-05-07T20:51:56.302Z,10.19
2023-05-07T20:54:25.556Z,10.26
2023-05-07T20:56:58.216Z,10.11
2023-05-07T20:59:25.288Z,10.22
2023-05-07T21:01:51.938Z,10.02
2023-05-07T21:04:18.899Z,9.99
2023-05-07T21:06:45.733Z,9.96
2023-05-07T21:09:12.364Z,9.90
2023-05-07T21:11:39.261Z,9.95
2023-05-07T21:14:08.733Z,9.90
2023-05-07T21:16:38.409Z,9.97
2023-05-07T21:19:06.716Z,9.93
2023-05-07T21:21:39.243Z,10.01
2023-05-07T21:24:06.606Z,9.90
2023-05-07T21:26:33.323Z,9.91
2023-05-07T21:29:00.265Z,9.81
2023-05-07T21:31:26.903Z,9.71
2023-05-07T21:33:53.854Z,9.67
2023-05-07T21:36:20.561Z,9.56
2023-05-07T21:38:49.136Z,9.50
2023-05-07T21:41:16.044Z,9.55
2023-05-07T21:43:42.873Z,9.46
2023-05-07T21:46:12.678Z,9.42
2023-05-07T21:48:42.036Z,9.30
2023-05-07T21:51:08.676Z,9.37
2023-05-07T21:53:38.324Z,9.33
2023-05-07T21:56:07.535Z,9.29
2023-05-07T21:58:34.115Z,9.30
2023-05-07T22:01:01.168Z,9.29
2023-05-07T22:03:27.896Z,9.23
2023-05-07T22:05:54.712Z,9.29
2023-05-07T22:08:26.995Z,9.21
2023-05-07T22:10:53.693Z,9.26
2023-05-07T22:13:20.371Z,9.22
2023-05-07T22:15:56.590Z,9.17
2023-05-07T22:18:25.545Z,9.15
2023-05-07T22:20:52.338Z,9.05
2023-05-07T22:23:21.310Z,9.07
2023-05-07T22:25:47.947Z,9.06
2023-05-07T22:28:14.672Z,8.97
2023-05-07T22:30:44.506Z,8.89
2023-05-07T22:33:11.164Z,8.94
2023-05-07T22:35:41.001Z,9.01
2023-05-07T22:38:07.708Z,8.98
2023-05-07T22:40:37.643Z,8.97
2023-05-07T22:43:04.478Z,9.04
2023-05-07T22:45:31.280Z,8.87
2023-05-07T22:47:58.249Z,8.76
2023-05-07T22:50:27.017Z,8.90
2023-05-07T22:52:53.806Z,8.79
2023-05-07T22:55:20.553Z,8.86
2023-05-07T22:57:47.215Z,8.82
2023-05-07T23:00:14.697Z,8.79
2023-05-07T23:02:44.776Z,8.74
2023-05-07T23:05:14.558Z,8.73
2023-05-07T23:07:41.279Z,8.65
2023-05-07T23:10:11.857Z,8.65
2023-05-07T23:12:38.670Z,8.54
2023-05-07T23:15:06.107Z,8.56
2023-05-07T23:17:32.908Z,8.65
2023-05-07T23:19:59.584Z,8.65
2023-05-07T23:22:26.331Z,8.56
2023-05-07T23:24:53.226Z,8.62
2023-05-07T23:27:20.079Z,8.56
2023-05-07T23:29:46.775Z,8.63
2023-05-07T23:32:19.392Z,8.68
2023-05-07T23:34:50.285Z,8.52
2023-05-07T23:37:17.264Z,8.56
2023-05-07T23:39:43.993Z,8.41
2023-05-07T23:42:10.708Z,8.36
2023-05-07T23:44:37.443Z,8.37
2023-05-07T23:47:05.247Z,8.36
2023-05-07T23:49:32.098Z,8.22
2023-05-07T23:51:58.794Z,8.29
2023-05-07T23:54:25.595Z,8.37
2023-05-07T23:56:54.645Z,8.25
2023-05-07T23:59:21.269Z,8.30
